sensor_id;sensor_type;location;lat;lon;timestamp;pressure;altitude;pressure_sealevel;temperature;humidity
30182;BME280;16990;49.056;9.240;2022-07-29T00:02:27;98549.00;;;19.42;95.74
30182;BME280;16990;49.056;9.240;2022-07-29T00:04:54;98551.03;;;19.50;96.14
30182;BME280;16990;49.056;9.240;2022-07-29T00:07:21;98542.75;;;19.42;95.18
30182;BME280;16990;49.056;9.240;2022-07-29T00:09:47;98537.88;;;19.25;97.75
30182;BME280;16990;49.056;9.240;2022-07-29T00:12:14;98533.91;;;19.36;95.99
30182;BME280;16990;49.056;9.240;2022-07-29T00:14:41;98531.06;;;19.27;96.09
30182;BME280;16990;49.056;9.240;2022-07-29T00:17:07;98530.66;;;19.20;97.40
30182;BME280;16990;49.056;9.240;2022-07-29T00:19:35;98535.38;;;19.28;97.04
30182;BME280;16990;49.056;9.240;2022-07-29T00:22:02;98521.59;;;19.25;97.11
30182;BME280;16990;49.056;9.240;2022-07-29T00:24:29;98527.03;;;19.25;96.71
30182;BME280;16990;49.056;9.240;2022-07-29T00:26:55;98517.81;;;19.26;96.83
30182;BME280;16990;49.056;9.240;2022-07-29T00:29:22;98524.41;;;19.20;97.52
30182;BME280;16990;49.056;9.240;2022-07-29T00:31:49;98515.75;;;19.18;97.17
30182;BME280;16990;49.056;9.240;2022-07-29T00:34:15;98505.50;;;19.15;97.64
30182;BME280;16990;49.056;9.240;2022-07-29T00:37:01;98509.84;;;19.16;97.78
30182;BME280;16990;49.056;9.240;2022-07-29T00:39:28;98506.31;;;19.15;98.33
30182;BME280;16990;49.056;9.240;2022-07-29T00:41:54;98501.28;;;19.08;97.61
30182;BME280;16990;49.056;9.240;2022-07-29T00:44:21;98505.69;;;19.04;98.32
30182;BME280;16990;49.056;9.240;2022-07-29T00:46:48;98494.03;;;19.04;98.09
30182;BME280;16990;49.056;9.240;2022-07-29T00:49:14;98491.34;;;19.04;98.22
30182;BME280;16990;49.056;9.240;2022-07-29T00:51:41;98486.72;;;19.04;97.91
30182;BME280;16990;49.056;9.240;2022-07-29T00:54:09;98487.38;;;18.96;97.41
30182;BME280;16990;49.056;9.240;2022-07-29T00:56:36;98489.38;;;18.90;98.28
30182;BME280;16990;49.056;9.240;2022-07-29T00:59:03;98496.19;;;18.88;98.35
30182;BME280;16990;49.056;9.240;2022-07-29T01:01:30;98497.84;;;18.84;99.36
30182;BME280;16990;49.056;9.240;2022-07-29T01:03:56;98492.94;;;18.86;98.57
30182;BME280;16990;49.056;9.240;2022-07-29T01:06:23;98499.31;;;18.76;98.72
30182;BME280;16990;49.056;9.240;2022-07-29T01:08:51;98502.44;;;18.64;100.00
30182;BME280;16990;49.056;9.240;2022-07-29T01:11:19;98489.22;;;18.63;100.00
30182;BME280;16990;49.056;9.240;2022-07-29T01:13:47;98495.19;;;18.60;100.00
30182;BME280;16990;49.056;9.240;2022-07-29T01:16:20;98485.31;;;18.50;100.00
30182;BME280;16990;49.056;9.240;2022-07-29T01:18:49;98489.13;;;18.49;100.00
30182;BME280;16990;49.056;9.240;2022-07-29T01:21:27;98489.91;;;18.49;100.00
30182;BME280;16990;49.056;9.240;2022-07-29T01:24:28;98494.47;;;18.54;100.00
30182;BME280;16990;49.056;9.240;2022-07-29T01:27:00;98489.06;;;18.54;100.00
30182;BME280;16990;49.056;9.240;2022-07-29T01:29:32;98487.94;;;18.55;100.00
30182;BME280;16990;49.056;9.240;2022-07-29T01:32:07;98490.00;;;18.63;99.98
30182;BME280;16990;49.056;9.240;2022-07-29T01:34:40;98494.19;;;18.56;99.62
30182;BME280;16990;49.056;9.240;2022-07-29T01:37:12;98480.13;;;18.54;100.00
30182;BME280;16990;49.056;9.240;2022-07-29T01:39:42;98479.69;;;18.46;100.00
30182;BME280;16990;49.056;9.240;2022-07-29T01:42:15;98484.84;;;18.43;100.00
30182;BME280;16990;49.056;9.240;2022-07-29T01:44:55;98478.47;;;18.34;100.00
30182;BME280;16990;49.056;9.240;2022-07-29T01:47:26;98485.53;;;18.35;100.00
30182;BME280;16990;49.056;9.240;2022-07-29T01:49:56;98477.59;;;18.38;100.00
30182;BME280;16990;49.056;9.240;2022-07-29T01:52:28;98490.06;;;18.39;100.00
30182;BME280;16990;49.056;9.240;2022-07-29T01:54:58;98486.50;;;18.44;99.90
30182;BME280;16990;49.056;9.240;2022-07-29T01:57:31;98482.94;;;18.43;99.95
30182;BME280;16990;49.056;9.240;2022-07-29T02:00:00;98486.03;;;18.37;100.00
30182;BME280;16990;49.056;9.240;2022-07-29T02:02:29;98495.03;;;18.32;100.00
30182;BME280;16990;49.056;9.240;2022-07-29T02:04:58;98484.75;;;18.29;100.00
30182;BME280;16990;49.056;9.240;2022-07-29T02:07:28;98490.56;;;18.22;100.00
30182;BME280;16990;49.056;9.240;2022-07-29T02:09:56;98491.47;;;18.13;100.00
30182;BME280;16990;49.056;9.240;2022-07-29T02:12:25;98486.34;;;18.11;100.00
30182;BME280;16990;49.056;9.240;2022-07-29T02:14:54;98482.03;;;18.10;100.00
30182;BME280;16990;49.056;9.240;2022-07-29T02:17:26;98486.22;;;18.21;100.00
30182;BME280;16990;49.056;9.240;2022-07-29T02:19:57;98479.38;;;18.05;100.00
30182;BME280;16990;49.056;9.240;2022-07-29T02:22:26;98483.84;;;17.96;100.00
30182;BME280;16990;49.056;9.240;2022-07-29T02:24:55;98478.44;;;17.96;100.00
30182;BME280;16990;49.056;9.240;2022-07-29T02:27:22;98477.38;;;17.92;100.00
30182;BME280;16990;49.056;9.240;2022-07-29T02:29:50;98479.03;;;17.88;100.00
30182;BME280;16990;49.056;9.240;2022-07-29T02:32:19;98475.28;;;17.83;100.00
30182;BME280;16990;49.056;9.240;2022-07-29T02:34:49;98477.06;;;17.93;100.00
30182;BME280;16990;49.056;9.240;2022-07-29T02:37:17;98473.03;;;17.91;100.00
30182;BME280;16990;49.056;9.240;2022-07-29T02:39:45;98467.41;;;17.87;100.00
30182;BME280;16990;49.056;9.240;2022-07-29T02:42:16;98464.72;;;17.87;100.00
30182;BME280;16990;49.056;9.240;2022-07-29T02:44:43;98464.47;;;17.83;100.00
30182;BME280;16990;49.056;9.240;2022-07-29T02:47:15;98476.91;;;17.84;100.00
30182;BME280;16990;49.056;9.240;2022-07-29T02:49:51;98476.13;;;17.84;100.00
30182;BME280;16990;49.056;9.240;2022-07-29T02:52:23;98485.56;;;17.87;100.00
30182;BME280;16990;49.056;9.240;2022-07-29T02:54:55;98472.84;;;17.87;100.00
30182;BME280;16990;49.056;9.240;2022-07-29T02:57:28;98475.81;;;17.85;100.00
30182;BME280;16990;49.056;9.240;2022-07-29T02:59:57;98470.19;;;17.82;100.00
30182;BME280;16990;49.056;9.240;2022-07-29T03:02:25;98473.72;;;17.77;100.00
30182;BME280;16990;49.056;9.240;2022-07-29T03:04:55;98468.84;;;17.79;100.00
30182;BME280;16990;49.056;9.240;2022-07-29T03:07:24;98468.31;;;17.77;100.00
30182;BME280;16990;49.056;9.240;2022-07-29T03:09:52;98463.03;;;17.67;100.00
30182;BME280;16990;49.056;9.240;2022-07-29T03:12:19;98468.75;;;17.60;100.00
30182;BME280;16990;49.056;9.240;2022-07-29T03:14:47;98473.91;;;17.57;100.00
30182;BME280;16990;49.056;9.240;2022-07-29T03:17:15;98463.69;;;17.54;100.00
30182;BME280;16990;49.056;9.240;2022-07-29T03:19:42;98474.44;;;17.59;100.00
30182;BME280;16990;49.056;9.240;2022-07-29T03:22:10;98469.03;;;17.59;100.00
30182;BME280;16990;49.056;9.240;2022-07-29T03:24:38;98470.94;;;17.58;100.00
30182;BME280;16990;49.056;9.240;2022-07-29T03:27:05;98486.69;;;17.51;100.00
30182;BME280;16990;49.056;9.240;2022-07-29T03:29:32;98475.06;;;17.51;100.00
30182;BME280;16990;49.056;9.240;2022-07-29T03:31:59;98475.63;;;17.48;100.00
30182;BME280;16990;49.056;9.240;2022-07-29T03:34:25;98474.59;;;17.43;100.00
30182;BME280;16990;49.056;9.240;2022-07-29T03:36:52;98480.22;;;17.47;100.00
30182;BME280;16990;49.056;9.240;2022-07-29T03:39:24;98476.22;;;17.44;100.00
30182;BME280;16990;49.056;9.240;2022-07-29T03:41:53;98478.38;;;17.42;100.00
30182;BME280;16990;49.056;9.240;2022-07-29T03:44:22;98478.38;;;17.42;100.00
30182;BME280;16990;49.056;9.240;2022-07-29T03:46:50;98491.16;;;17.37;100.00
30182;BME280;16990;49.056;9.240;2022-07-29T03:49:19;98478.47;;;17.32;100.00
30182;BME280;16990;49.056;9.240;2022-07-29T03:51:46;98473.09;;;17.32;100.00
30182;BME280;16990;49.056;9.240;2022-07-29T03:54:13;98474.47;;;17.30;100.00
30182;BME280;16990;49.056;9.240;2022-07-29T03:56:43;98474.72;;;17.28;100.00
30182;BME280;16990;49.056;9.240;2022-07-29T03:59:13;98475.56;;;17.23;100.00
30182;BME280;16990;49.056;9.240;2022-07-29T04:01:41;98474.19;;;17.26;100.00
30182;BME280;16990;49.056;9.240;2022-07-29T04:04:08;98466.63;;;17.28;100.00
30182;BME280;16990;49.056;9.240;2022-07-29T04:06:39;98471.22;;;17.28;100.00
30182;BME280;16990;49.056;9.240;2022-07-29T04:09:06;98476.44;;;17.19;100.00
30182;BME280;16990;49.056;9.240;2022-07-29T04:11:34;98475.94;;;17.17;100.00
30182;BME280;16990;49.056;9.240;2022-07-29T04:14:02;98466.72;;;17.18;100.00
30182;BME280;16990;49.056;9.240;2022-07-29T04:16:29;98474.78;;;17.23;100.00
30182;BME280;16990;49.056;9.240;2022-07-29T04:18:55;98472.59;;;17.25;100.00
30182;BME280;16990;49.056;9.240;2022-07-29T04:21:22;98472.84;;;17.29;100.00
30182;BME280;16990;49.056;9.240;2022-07-29T04:23:49;98476.31;;;17.34;100.00
30182;BME280;16990;49.056;9.240;2022-07-29T04:26:16;98478.97;;;17.39;100.00
30182;BME280;16990;49.056;9.240;2022-07-29T04:28:42;98485.41;;;17.43;100.00
30182;BME280;16990;49.056;9.240;2022-07-29T04:36:19;98485.13;;;17.45;100.00
30182;BME280;16990;49.056;9.240;2022-07-29T04:38:45;98489.13;;;17.48;100.00
30182;BME280;16990;49.056;9.240;2022-07-29T04:41:12;98487.50;;;17.52;100.00
30182;BME280;16990;49.056;9.240;2022-07-29T04:43:38;98485.88;;;17.51;100.00
30182;BME280;16990;49.056;9.240;2022-07-29T04:46:06;98480.72;;;17.54;100.00
30182;BME280;16990;49.056;9.240;2022-07-29T04:48:32;98488.50;;;17.61;100.00
30182;BME280;16990;49.056;9.240;2022-07-29T04:50:59;98483.59;;;17.63;100.00
30182;BME280;16990;49.056;9.240;2022-07-29T04:53:27;98480.84;;;17.68;100.00
30182;BME280;16990;49.056;9.240;2022-07-29T04:55:54;98478.34;;;17.77;100.00
30182;BME280;16990;49.056;9.240;2022-07-29T04:58:20;98482.59;;;17.83;100.00
30182;BME280;16990;49.056;9.240;2022-07-29T05:00:48;98479.03;;;17.88;100.00
30182;BME280;16990;49.056;9.240;2022-07-29T05:03:15;98485.19;;;17.93;100.00
30182;BME280;16990;49.056;9.240;2022-07-29T05:05:42;98487.34;;;17.96;100.00
30182;BME280;16990;49.056;9.240;2022-07-29T05:08:08;98483.91;;;18.10;100.00
30182;BME280;16990;49.056;9.240;2022-07-29T05:10:36;98502.53;;;18.16;100.00
30182;BME280;16990;49.056;9.240;2022-07-29T05:13:04;98489.25;;;18.15;100.00
30182;BME280;16990;49.056;9.240;2022-07-29T05:15:31;98482.78;;;18.16;100.00
30182;BME280;16990;49.056;9.240;2022-07-29T05:17:58;98488.25;;;18.11;100.00
30182;BME280;16990;49.056;9.240;2022-07-29T05:20:25;98482.84;;;18.11;100.00
30182;BME280;16990;49.056;9.240;2022-07-29T05:22:54;98494.75;;;18.10;100.00
30182;BME280;16990;49.056;9.240;2022-07-29T05:25:20;98489.06;;;18.11;100.00
30182;BME280;16990;49.056;9.240;2022-07-29T05:27:49;98490.69;;;18.31;100.00
30182;BME280;16990;49.056;9.240;2022-07-29T05:30:15;98491.38;;;18.42;100.00
30182;BME280;16990;49.056;9.240;2022-07-29T05:32:42;98491.31;;;18.47;100.00
30182;BME280;16990;49.056;9.240;2022-07-29T05:35:09;98498.84;;;18.50;100.00
30182;BME280;16990;49.056;9.240;2022-07-29T05:37:36;98493.16;;;18.52;100.00
30182;BME280;16990;49.056;9.240;2022-07-29T05:40:04;98498.84;;;18.69;100.00
30182;BME280;16990;49.056;9.240;2022-07-29T05:42:31;98496.84;;;18.80;99.76
30182;BME280;16990;49.056;9.240;2022-07-29T05:44:59;98503.41;;;18.92;98.84
30182;BME280;16990;49.056;9.240;2022-07-29T05:47:26;98506.72;;;19.08;97.55
30182;BME280;16990;49.056;9.240;2022-07-29T05:49:53;98507.69;;;19.31;96.28
30182;BME280;16990;49.056;9.240;2022-07-29T05:52:20;98504.72;;;19.61;95.32
30182;BME280;16990;49.056;9.240;2022-07-29T05:54:47;98506.72;;;19.88;92.43
30182;BME280;16990;49.056;9.240;2022-07-29T05:57:17;98508.63;;;20.01;91.46
30182;BME280;16990;49.056;9.240;2022-07-29T05:59:44;98511.06;;;20.03;91.59
30182;BME280;16990;49.056;9.240;2022-07-29T06:02:12;98519.50;;;20.15;91.52
30182;BME280;16990;49.056;9.240;2022-07-29T06:04:38;98517.19;;;20.22;91.69
30182;BME280;16990;49.056;9.240;2022-07-29T06:07:05;98527.53;;;20.20;90.62
30182;BME280;16990;49.056;9.240;2022-07-29T06:09:32;98519.91;;;20.22;91.00
30182;BME280;16990;49.056;9.240;2022-07-29T06:11:59;98517.59;;;20.15;90.96
30182;BME280;16990;49.056;9.240;2022-07-29T06:14:26;98521.91;;;20.16;92.44
30182;BME280;16990;49.056;9.240;2022-07-29T06:16:53;98525.94;;;20.19;91.53
30182;BME280;16990;49.056;9.240;2022-07-29T06:19:21;98520.41;;;20.24;92.51
30182;BME280;16990;49.056;9.240;2022-07-29T06:21:48;98521.50;;;20.37;91.64
30182;BME280;16990;49.056;9.240;2022-07-29T06:24:15;98533.25;;;20.46;90.71
30182;BME280;16990;49.056;9.240;2022-07-29T06:26:42;98532.84;;;20.53;90.21
30182;BME280;16990;49.056;9.240;2022-07-29T06:29:10;98533.28;;;20.60;90.56
30182;BME280;16990;49.056;9.240;2022-07-29T06:31:37;98536.47;;;20.76;88.61
30182;BME280;16990;49.056;9.240;2022-07-29T06:34:04;98530.81;;;20.86;89.09
30182;BME280;16990;49.056;9.240;2022-07-29T06:36:34;98538.97;;;20.86;89.36
30182;BME280;16990;49.056;9.240;2022-07-29T06:39:03;98538.22;;;20.94;89.06
30182;BME280;16990;49.056;9.240;2022-07-29T06:41:30;98543.41;;;21.04;87.84
30182;BME280;16990;49.056;9.240;2022-07-29T06:43:57;98546.84;;;21.10;85.94
30182;BME280;16990;49.056;9.240;2022-07-29T06:46:24;98549.22;;;21.12;85.54
30182;BME280;16990;49.056;9.240;2022-07-29T06:48:51;98546.22;;;21.13;85.21
30182;BME280;16990;49.056;9.240;2022-07-29T06:51:18;98551.03;;;21.16;84.63
30182;BME280;16990;49.056;9.240;2022-07-29T06:53:46;98551.91;;;21.25;84.86
30182;BME280;16990;49.056;9.240;2022-07-29T06:56:12;98560.63;;;21.36;84.89
30182;BME280;16990;49.056;9.240;2022-07-29T06:58:39;98556.34;;;21.66;83.25
30182;BME280;16990;49.056;9.240;2022-07-29T07:01:06;98561.38;;;21.73;82.15
30182;BME280;16990;49.056;9.240;2022-07-29T07:03:33;98561.38;;;21.73;81.11
30182;BME280;16990;49.056;9.240;2022-07-29T07:06:00;98566.31;;;21.71;81.48
30182;BME280;16990;49.056;9.240;2022-07-29T07:08:26;98567.81;;;21.77;81.71
30182;BME280;16990;49.056;9.240;2022-07-29T07:10:55;98557.84;;;21.73;83.16
30182;BME280;16990;49.056;9.240;2022-07-29T07:13:22;98568.47;;;21.83;83.43
30182;BME280;16990;49.056;9.240;2022-07-29T07:15:49;98556.56;;;22.01;82.39
30182;BME280;16990;49.056;9.240;2022-07-29T07:18:17;98559.19;;;22.15;78.83
30182;BME280;16990;49.056;9.240;2022-07-29T07:20:44;98563.28;;;22.35;78.43
30182;BME280;16990;49.056;9.240;2022-07-29T07:23:11;98558.84;;;22.57;77.23
30182;BME280;16990;49.056;9.240;2022-07-29T07:25:38;98561.44;;;22.62;76.37
30182;BME280;16990;49.056;9.240;2022-07-29T07:28:06;98570.47;;;22.80;76.45
30182;BME280;16990;49.056;9.240;2022-07-29T07:30:32;98559.88;;;22.96;74.14
30182;BME280;16990;49.056;9.240;2022-07-29T07:32:59;98563.31;;;23.01;74.66
30182;BME280;16990;49.056;9.240;2022-07-29T07:35:26;98568.25;;;23.08;74.14
30182;BME280;16990;49.056;9.240;2022-07-29T07:37:55;98565.53;;;23.08;72.12
30182;BME280;16990;49.056;9.240;2022-07-29T07:40:22;98565.38;;;23.13;72.05
30182;BME280;16990;49.056;9.240;2022-07-29T07:42:49;98564.72;;;23.07;72.07
30182;BME280;16990;49.056;9.240;2022-07-29T07:45:17;98571.50;;;23.27;71.16
30182;BME280;16990;49.056;9.240;2022-07-29T07:47:44;98564.59;;;23.30;71.33
30182;BME280;16990;49.056;9.240;2022-07-29T07:50:11;98560.03;;;23.60;70.49
30182;BME280;16990;49.056;9.240;2022-07-29T07:52:46;98564.03;;;23.71;68.37
30182;BME280;16990;49.056;9.240;2022-07-29T07:55:14;98565.38;;;23.13;69.02
30182;BME280;16990;49.056;9.240;2022-07-29T07:57:40;98566.66;;;23.07;71.66
30182;BME280;16990;49.056;9.240;2022-07-29T08:00:08;98560.38;;;23.15;72.50
30182;BME280;16990;49.056;9.240;2022-07-29T08:02:36;98562.31;;;23.41;70.46
30182;BME280;16990;49.056;9.240;2022-07-29T08:05:03;98565.34;;;23.74;68.36
30182;BME280;16990;49.056;9.240;2022-07-29T08:07:30;98567.56;;;23.63;68.86
30182;BME280;16990;49.056;9.240;2022-07-29T08:09:57;98558.91;;;23.78;68.21
30182;BME280;16990;49.056;9.240;2022-07-29T08:12:23;98570.59;;;23.70;69.10
30182;BME280;16990;49.056;9.240;2022-07-29T08:14:50;98568.03;;;23.65;68.27
30182;BME280;16990;49.056;9.240;2022-07-29T08:17:17;98565.50;;;23.69;68.50
30182;BME280;16990;49.056;9.240;2022-07-29T08:19:45;98568.53;;;23.67;68.08
30182;BME280;16990;49.056;9.240;2022-07-29T08:22:13;98565.28;;;23.91;67.76
30182;BME280;16990;49.056;9.240;2022-07-29T08:24:40;98577.06;;;23.74;68.43
30182;BME280;16990;49.056;9.240;2022-07-29T08:27:10;98574.25;;;24.01;67.82
30182;BME280;16990;49.056;9.240;2022-07-29T08:29:37;98582.25;;;24.14;65.16
30182;BME280;16990;49.056;9.240;2022-07-29T08:32:04;98578.91;;;24.09;65.41
30182;BME280;16990;49.056;9.240;2022-07-29T08:34:32;98577.78;;;24.01;64.95
30182;BME280;16990;49.056;9.240;2022-07-29T08:37:00;98583.63;;;23.82;65.82
30182;BME280;16990;49.056;9.240;2022-07-29T08:39:26;98569.16;;;23.90;66.67
30182;BME280;16990;49.056;9.240;2022-07-29T08:41:53;98573.84;;;23.81;66.54
30182;BME280;16990;49.056;9.240;2022-07-29T08:44:20;98581.66;;;24.00;66.61
30182;BME280;16990;49.056;9.240;2022-07-29T08:46:48;98584.75;;;23.90;66.47
30182;BME280;16990;49.056;9.240;2022-07-29T08:49:15;98576.25;;;23.83;67.65
30182;BME280;16990;49.056;9.240;2022-07-29T08:51:42;98574.56;;;23.99;67.27
30182;BME280;16990;49.056;9.240;2022-07-29T08:54:11;98580.13;;;24.20;65.26
30182;BME280;16990;49.056;9.240;2022-07-29T08:56:38;98583.50;;;24.26;66.49
30182;BME280;16990;49.056;9.240;2022-07-29T08:59:07;98577.31;;;24.46;65.93
30182;BME280;16990;49.056;9.240;2022-07-29T09:01:37;98576.75;;;24.61;65.38
30182;BME280;16990;49.056;9.240;2022-07-29T09:04:04;98572.03;;;24.71;63.84
30182;BME280;16990;49.056;9.240;2022-07-29T09:06:34;98581.25;;;24.87;63.95
30182;BME280;16990;49.056;9.240;2022-07-29T09:09:03;98571.78;;;25.05;64.01
30182;BME280;16990;49.056;9.240;2022-07-29T09:11:33;98574.31;;;25.11;61.98
30182;BME280;16990;49.056;9.240;2022-07-29T09:14:00;98569.66;;;24.90;62.79
30182;BME280;16990;49.056;9.240;2022-07-29T09:16:44;98577.41;;;24.88;64.56
30182;BME280;16990;49.056;9.240;2022-07-29T09:19:19;98571.53;;;24.98;62.09
30182;BME280;16990;49.056;9.240;2022-07-29T09:21:46;98571.09;;;24.88;61.82
30182;BME280;16990;49.056;9.240;2022-07-29T09:24:41;98577.94;;;25.02;62.75
30182;BME280;16990;49.056;9.240;2022-07-29T09:27:20;98576.63;;;25.30;61.69
30182;BME280;16990;49.056;9.240;2022-07-29T09:29:48;98571.78;;;24.84;61.41
30182;BME280;16990;49.056;9.240;2022-07-29T09:32:21;98570.31;;;24.87;65.83
30182;BME280;16990;49.056;9.240;2022-07-29T09:34:47;98571.56;;;25.19;61.65
30182;BME280;16990;49.056;9.240;2022-07-29T09:37:25;98571.66;;;24.81;63.20
30182;BME280;16990;49.056;9.240;2022-07-29T09:39:52;98567.00;;;25.02;63.40
30182;BME280;16990;49.056;9.240;2022-07-29T09:42:28;98576.69;;;25.21;61.90
30182;BME280;16990;49.056;9.240;2022-07-29T09:44:57;98577.25;;;25.47;61.23
30182;BME280;16990;49.056;9.240;2022-07-29T09:47:40;98576.50;;;25.26;60.63
30182;BME280;16990;49.056;9.240;2022-07-29T09:50:07;98570.09;;;25.22;59.67
30182;BME280;16990;49.056;9.240;2022-07-29T09:52:44;98569.16;;;25.18;61.22
30182;BME280;16990;49.056;9.240;2022-07-29T09:55:12;98570.59;;;25.15;60.94
30182;BME280;16990;49.056;9.240;2022-07-29T09:57:40;98568.94;;;25.23;61.39
30182;BME280;16990;49.056;9.240;2022-07-29T10:00:09;98568.75;;;25.07;62.98
30182;BME280;16990;49.056;9.240;2022-07-29T10:02:37;98563.72;;;25.09;61.59
30182;BME280;16990;49.056;9.240;2022-07-29T10:05:06;98563.31;;;25.40;60.00
30182;BME280;16990;49.056;9.240;2022-07-29T10:07:46;98564.84;;;25.50;59.31
30182;BME280;16990;49.056;9.240;2022-07-29T10:10:18;98560.81;;;25.81;59.24
30182;BME280;16990;49.056;9.240;2022-07-29T10:12:52;98561.81;;;25.97;58.63
30182;BME280;16990;49.056;9.240;2022-07-29T10:15:21;98553.81;;;26.17;56.05
30182;BME280;16990;49.056;9.240;2022-07-29T10:17:48;98557.72;;;26.16;57.54
30182;BME280;16990;49.056;9.240;2022-07-29T10:20:15;98553.03;;;26.41;57.93
30182;BME280;16990;49.056;9.240;2022-07-29T10:22:42;98548.59;;;26.73;56.78
30182;BME280;16990;49.056;9.240;2022-07-29T10:25:10;98574.19;;;26.77;55.19
30182;BME280;16990;49.056;9.240;2022-07-29T10:27:36;98559.34;;;26.41;53.87
30182;BME280;16990;49.056;9.240;2022-07-29T10:30:06;98554.50;;;25.89;54.04
30182;BME280;16990;49.056;9.240;2022-07-29T10:32:51;98556.09;;;25.69;54.62
30182;BME280;16990;49.056;9.240;2022-07-29T10:35:40;98555.53;;;26.21;52.55
30182;BME280;16990;49.056;9.240;2022-07-29T10:38:41;98541.50;;;26.60;51.57
30182;BME280;16990;49.056;9.240;2022-07-29T10:41:21;98544.69;;;26.74;51.60
30182;BME280;16990;49.056;9.240;2022-07-29T10:43:59;98537.03;;;26.80;52.44
30182;BME280;16990;49.056;9.240;2022-07-29T10:46:34;98559.19;;;26.50;52.88
30182;BME280;16990;49.056;9.240;2022-07-29T10:49:05;98536.13;;;26.51;50.54
30182;BME280;16990;49.056;9.240;2022-07-29T10:54:48;98526.94;;;26.84;48.14
30182;BME280;16990;49.056;9.240;2022-07-29T10:57:21;98529.19;;;27.06;46.66
30182;BME280;16990;49.056;9.240;2022-07-29T11:02:45;98528.97;;;26.59;47.04
30182;BME280;16990;49.056;9.240;2022-07-29T11:05:17;98529.47;;;26.89;47.17
30182;BME280;16990;49.056;9.240;2022-07-29T11:08:20;98541.16;;;27.14;46.18
30182;BME280;16990;49.056;9.240;2022-07-29T11:10:49;98523.09;;;26.85;45.84
30182;BME280;16990;49.056;9.240;2022-07-29T11:13:45;98535.44;;;26.79;45.58
30182;BME280;16990;49.056;9.240;2022-07-29T11:16:14;98523.38;;;26.95;46.43
30182;BME280;16990;49.056;9.240;2022-07-29T11:19:20;98508.06;;;27.35;46.73
30182;BME280;16990;49.056;9.240;2022-07-29T11:21:47;98525.31;;;27.35;45.84
30182;BME280;16990;49.056;9.240;2022-07-29T11:24:17;98521.09;;;27.38;45.46
30182;BME280;16990;49.056;9.240;2022-07-29T11:26:44;98517.34;;;27.74;46.76
30182;BME280;16990;49.056;9.240;2022-07-29T11:29:18;98509.31;;;27.97;44.20
30182;BME280;16990;49.056;9.240;2022-07-29T11:31:49;98499.19;;;28.17;45.03
30182;BME280;16990;49.056;9.240;2022-07-29T11:34:23;98512.75;;;28.26;43.84
30182;BME280;16990;49.056;9.240;2022-07-29T11:37:16;98509.94;;;28.07;43.96
30182;BME280;16990;49.056;9.240;2022-07-29T11:39:44;98508.69;;;27.88;43.48
30182;BME280;16990;49.056;9.240;2022-07-29T11:42:37;98516.63;;;27.62;43.79
30182;BME280;16990;49.056;9.240;2022-07-29T11:45:05;98513.38;;;28.04;43.12
30182;BME280;16990;49.056;9.240;2022-07-29T11:47:34;98516.13;;;28.04;43.09
30182;BME280;16990;49.056;9.240;2022-07-29T11:50:04;98504.44;;;27.91;42.87
30182;BME280;16990;49.056;9.240;2022-07-29T11:52:32;98515.19;;;27.68;43.39
30182;BME280;16990;49.056;9.240;2022-07-29T11:55:04;98515.09;;;27.92;44.34
30182;BME280;16990;49.056;9.240;2022-07-29T11:57:33;98515.59;;;28.14;42.05
30182;BME280;16990;49.056;9.240;2022-07-29T12:00:01;98510.38;;;28.09;42.24
30182;BME280;16990;49.056;9.240;2022-07-29T12:02:38;98518.22;;;28.58;42.44
30182;BME280;16990;49.056;9.240;2022-07-29T12:05:09;98505.19;;;28.39;41.97
30182;BME280;16990;49.056;9.240;2022-07-29T12:07:37;98498.16;;;28.41;43.19
30182;BME280;16990;49.056;9.240;2022-07-29T12:10:05;98494.19;;;28.55;42.08
30182;BME280;16990;49.056;9.240;2022-07-29T12:12:32;98500.13;;;28.57;42.53
30182;BME280;16990;49.056;9.240;2022-07-29T12:15:10;98486.16;;;28.85;40.77
30182;BME280;16990;49.056;9.240;2022-07-29T12:17:37;98490.75;;;29.36;40.71
30182;BME280;16990;49.056;9.240;2022-07-29T12:20:05;98498.84;;;29.48;39.53
30182;BME280;16990;49.056;9.240;2022-07-29T12:22:34;98493.59;;;29.62;38.75
30182;BME280;16990;49.056;9.240;2022-07-29T12:25:05;98495.31;;;29.47;38.76
30182;BME280;16990;49.056;9.240;2022-07-29T12:27:32;98499.50;;;29.41;38.77
30182;BME280;16990;49.056;9.240;2022-07-29T12:30:00;98487.53;;;29.53;39.07
30182;BME280;16990;49.056;9.240;2022-07-29T12:32:32;98486.03;;;29.79;36.95
30182;BME280;16990;49.056;9.240;2022-07-29T12:34:59;98492.16;;;29.68;36.96
30182;BME280;16990;49.056;9.240;2022-07-29T12:37:28;98487.81;;;28.70;38.97
30182;BME280;16990;49.056;9.240;2022-07-29T12:39:56;98501.25;;;28.72;38.87
30182;BME280;16990;49.056;9.240;2022-07-29T12:42:23;98484.28;;;28.70;38.67
30182;BME280;16990;49.056;9.240;2022-07-29T12:44:50;98496.47;;;28.69;40.41
30182;BME280;16990;49.056;9.240;2022-07-29T12:47:19;98487.34;;;28.49;38.47
30182;BME280;16990;49.056;9.240;2022-07-29T12:49:46;98491.50;;;28.58;39.36
30182;BME280;16990;49.056;9.240;2022-07-29T12:52:24;98496.63;;;28.76;38.83
30182;BME280;16990;49.056;9.240;2022-07-29T12:54:50;98485.22;;;28.58;38.15
30182;BME280;16990;49.056;9.240;2022-07-29T12:57:19;98485.00;;;28.47;38.64
30182;BME280;16990;49.056;9.240;2022-07-29T12:59:58;98491.81;;;28.73;38.63
30182;BME280;16990;49.056;9.240;2022-07-29T13:02:25;98490.38;;;28.43;38.87
30182;BME280;16990;49.056;9.240;2022-07-29T13:04:55;98488.84;;;28.81;40.75
30182;BME280;16990;49.056;9.240;2022-07-29T13:07:24;98505.94;;;28.71;44.51
30182;BME280;16990;49.056;9.240;2022-07-29T13:09:51;98502.19;;;28.79;44.53
30182;BME280;16990;49.056;9.240;2022-07-29T13:12:19;98505.81;;;29.03;43.60
30182;BME280;16990;49.056;9.240;2022-07-29T13:14:47;98502.28;;;29.22;44.24
30182;BME280;16990;49.056;9.240;2022-07-29T13:17:15;98508.06;;;29.36;44.48
30182;BME280;16990;49.056;9.240;2022-07-29T13:19:43;98503.50;;;29.44;44.31
30182;BME280;16990;49.056;9.240;2022-07-29T13:22:12;98507.56;;;29.50;43.79